sensor_id;sensor_type;location;lat;lon;timestamp;P1;durP1;ratioP1;P2;durP2;ratioP2
70929;SDS011;58588;48.102;19.682;2023-07-29T00:01:36;9.18;;;2.20;;
70929;SDS011;58588;48.102;19.682;2023-07-29T00:04:41;6.75;;;2.28;;
70929;SDS011;58588;48.102;19.682;2023-07-29T00:07:43;8.50;;;2.10;;
70929;SDS011;58588;48.102;19.682;2023-07-29T00:10:45;9.45;;;2.50;;
70929;SDS011;58588;48.102;19.682;2023-07-29T00:13:47;7.63;;;2.42;;
70929;SDS011;58588;48.102;19.682;2023-07-29T00:16:50;7.60;;;2.00;;
70929;SDS011;58588;48.102;19.682;2023-07-29T00:19:53;8.03;;;2.30;;
70929;SDS011;58588;48.102;19.682;2023-07-29T00:22:55;8.03;;;2.17;;
70929;SDS011;58588;48.102;19.682;2023-07-29T00:25:59;8.23;;;2.38;;
70929;SDS011;58588;48.102;19.682;2023-07-29T00:29:01;6.68;;;2.20;;
70929;SDS011;58588;48.102;19.682;2023-07-29T00:32:03;6.70;;;2.10;;
70929;SDS011;58588;48.102;19.682;2023-07-29T00:35:08;7.28;;;2.13;;
70929;SDS011;58588;48.102;19.682;2023-07-29T00:38:10;7.53;;;2.17;;
70929;SDS011;58588;48.102;19.682;2023-07-29T00:41:12;8.15;;;2.40;;
70929;SDS011;58588;48.102;19.682;2023-07-29T00:44:15;9.25;;;2.13;;
70929;SDS011;58588;48.102;19.682;2023-07-29T00:47:17;7.00;;;2.17;;
70929;SDS011;58588;48.102;19.682;2023-07-29T00:50:23;8.57;;;2.08;;
70929;SDS011;58588;48.102;19.682;2023-07-29T00:53:30;5.60;;;1.97;;
70929;SDS011;58588;48.102;19.682;2023-07-29T00:56:39;7.07;;;1.85;;
70929;SDS011;58588;48.102;19.682;2023-07-29T00:59:41;6.00;;;1.90;;
70929;SDS011;58588;48.102;19.682;2023-07-29T01:02:44;8.02;;;2.13;;
70929;SDS011;58588;48.102;19.682;2023-07-29T01:05:56;15.10;;;2.42;;
70929;SDS011;58588;48.102;19.682;2023-07-29T01:09:05;7.97;;;2.03;;
70929;SDS011;58588;48.102;19.682;2023-07-29T01:12:12;9.10;;;2.40;;
70929;SDS011;58588;48.102;19.682;2023-07-29T01:15:22;8.30;;;2.00;;
70929;SDS011;58588;48.102;19.682;2023-07-29T01:18:30;7.53;;;1.92;;
70929;SDS011;58588;48.102;19.682;2023-07-29T01:21:35;9.32;;;1.92;;
70929;SDS011;58588;48.102;19.682;2023-07-29T01:24:40;7.20;;;2.13;;
70929;SDS011;58588;48.102;19.682;2023-07-29T01:27:42;7.18;;;2.30;;
70929;SDS011;58588;48.102;19.682;2023-07-29T01:30:46;9.20;;;2.10;;
70929;SDS011;58588;48.102;19.682;2023-07-29T01:33:56;10.35;;;2.28;;
70929;SDS011;58588;48.102;19.682;2023-07-29T01:37:00;6.93;;;1.67;;
70929;SDS011;58588;48.102;19.682;2023-07-29T01:40:08;9.77;;;1.97;;
70929;SDS011;58588;48.102;19.682;2023-07-29T01:43:12;9.15;;;2.08;;
70929;SDS011;58588;48.102;19.682;2023-07-29T01:46:14;8.02;;;2.20;;
70929;SDS011;58588;48.102;19.682;2023-07-29T01:49:17;6.75;;;1.90;;
70929;SDS011;58588;48.102;19.682;2023-07-29T01:52:19;6.55;;;1.83;;
70929;SDS011;58588;48.102;19.682;2023-07-29T01:55:22;10.53;;;2.10;;
70929;SDS011;58588;48.102;19.682;2023-07-29T01:58:24;6.82;;;2.10;;
70929;SDS011;58588;48.102;19.682;2023-07-29T02:01:26;7.43;;;1.98;;
70929;SDS011;58588;48.102;19.682;2023-07-29T02:04:28;9.18;;;2.40;;
70929;SDS011;58588;48.102;19.682;2023-07-29T02:07:30;11.60;;;2.60;;
70929;SDS011;58588;48.102;19.682;2023-07-29T02:10:34;7.50;;;2.57;;
70929;SDS011;58588;48.102;19.682;2023-07-29T02:13:36;7.32;;;2.15;;
70929;SDS011;58588;48.102;19.682;2023-07-29T02:16:38;8.32;;;2.10;;
70929;SDS011;58588;48.102;19.682;2023-07-29T02:19:42;10.10;;;2.40;;
70929;SDS011;58588;48.102;19.682;2023-07-29T02:22:44;9.77;;;2.50;;
70929;SDS011;58588;48.102;19.682;2023-07-29T02:25:47;9.30;;;2.20;;
70929;SDS011;58588;48.102;19.682;2023-07-29T02:28:49;8.57;;;2.00;;
70929;SDS011;58588;48.102;19.682;2023-07-29T02:31:51;11.80;;;2.10;;
70929;SDS011;58588;48.102;19.682;2023-07-29T02:34:53;6.95;;;2.22;;
70929;SDS011;58588;48.102;19.682;2023-07-29T02:37:55;5.73;;;2.23;;
70929;SDS011;58588;48.102;19.682;2023-07-29T02:40:59;5.50;;;2.10;;
70929;SDS011;58588;48.102;19.682;2023-07-29T02:44:01;5.10;;;2.10;;
70929;SDS011;58588;48.102;19.682;2023-07-29T02:47:03;11.88;;;2.20;;
70929;SDS011;58588;48.102;19.682;2023-07-29T02:50:06;8.82;;;2.47;;
70929;SDS011;58588;48.102;19.682;2023-07-29T02:53:08;10.20;;;2.20;;
70929;SDS011;58588;48.102;19.682;2023-07-29T02:56:12;7.97;;;2.30;;
70929;SDS011;58588;48.102;19.682;2023-07-29T02:59:14;10.20;;;2.35;;
70929;SDS011;58588;48.102;19.682;2023-07-29T03:02:16;5.88;;;2.13;;
70929;SDS011;58588;48.102;19.682;2023-07-29T03:05:18;9.15;;;2.08;;
70929;SDS011;58588;48.102;19.682;2023-07-29T03:08:20;7.97;;;1.80;;
70929;SDS011;58588;48.102;19.682;2023-07-29T03:11:23;10.10;;;2.00;;
70929;SDS011;58588;48.102;19.682;2023-07-29T03:14:25;7.78;;;1.95;;
70929;SDS011;58588;48.102;19.682;2023-07-29T03:17:27;9.00;;;1.90;;
70929;SDS011;58588;48.102;19.682;2023-07-29T03:20:29;7.78;;;2.33;;
70929;SDS011;58588;48.102;19.682;2023-07-29T03:23:32;9.23;;;1.87;;
70929;SDS011;58588;48.102;19.682;2023-07-29T03:26:36;8.30;;;2.70;;
70929;SDS011;58588;48.102;19.682;2023-07-29T03:29:38;5.22;;;1.88;;
70929;SDS011;58588;48.102;19.682;2023-07-29T03:32:42;10.00;;;2.08;;
70929;SDS011;58588;48.102;19.682;2023-07-29T03:35:45;12.43;;;3.25;;
70929;SDS011;58588;48.102;19.682;2023-07-29T03:38:47;6.53;;;1.83;;
70929;SDS011;58588;48.102;19.682;2023-07-29T03:41:51;7.43;;;1.80;;
70929;SDS011;58588;48.102;19.682;2023-07-29T03:44:53;9.55;;;2.15;;
70929;SDS011;58588;48.102;19.682;2023-07-29T03:47:55;5.10;;;1.70;;
70929;SDS011;58588;48.102;19.682;2023-07-29T03:50:57;7.00;;;1.50;;
70929;SDS011;58588;48.102;19.682;2023-07-29T03:53:59;6.67;;;1.50;;
70929;SDS011;58588;48.102;19.682;2023-07-29T03:57:03;6.70;;;1.53;;
70929;SDS011;58588;48.102;19.682;2023-07-29T04:00:05;6.95;;;1.90;;
70929;SDS011;58588;48.102;19.682;2023-07-29T04:03:09;9.15;;;1.95;;
70929;SDS011;58588;48.102;19.682;2023-07-29T04:06:11;10.75;;;2.00;;
70929;SDS011;58588;48.102;19.682;2023-07-29T04:09:13;9.37;;;1.90;;
70929;SDS011;58588;48.102;19.682;2023-07-29T04:12:16;8.27;;;2.17;;
70929;SDS011;58588;48.102;19.682;2023-07-29T04:15:21;8.00;;;2.28;;
70929;SDS011;58588;48.102;19.682;2023-07-29T04:18:23;10.32;;;2.10;;
70929;SDS011;58588;48.102;19.682;2023-07-29T04:21:25;6.57;;;1.90;;
70929;SDS011;58588;48.102;19.682;2023-07-29T04:24:27;5.80;;;2.40;;
70929;SDS011;58588;48.102;19.682;2023-07-29T04:27:31;9.60;;;2.30;;
70929;SDS011;58588;48.102;19.682;2023-07-29T04:30:33;8.27;;;2.10;;
70929;SDS011;58588;48.102;19.682;2023-07-29T04:33:35;6.28;;;2.10;;
70929;SDS011;58588;48.102;19.682;2023-07-29T04:36:37;6.75;;;2.10;;
70929;SDS011;58588;48.102;19.682;2023-07-29T04:39:39;10.10;;;2.40;;
70929;SDS011;58588;48.102;19.682;2023-07-29T04:42:43;7.23;;;2.30;;
70929;SDS011;58588;48.102;19.682;2023-07-29T04:45:45;6.40;;;2.08;;
70929;SDS011;58588;48.102;19.682;2023-07-29T04:48:47;7.40;;;2.22;;
70929;SDS011;58588;48.102;19.682;2023-07-29T04:51:49;5.78;;;2.17;;
70929;SDS011;58588;48.102;19.682;2023-07-29T04:54:51;6.37;;;2.30;;
70929;SDS011;58588;48.102;19.682;2023-07-29T04:57:54;6.13;;;2.37;;
70929;SDS011;58588;48.102;19.682;2023-07-29T05:00:56;7.80;;;2.08;;
70929;SDS011;58588;48.102;19.682;2023-07-29T05:03:58;8.25;;;2.30;;
70929;SDS011;58588;48.102;19.682;2023-07-29T05:07:00;6.57;;;2.30;;
70929;SDS011;58588;48.102;19.682;2023-07-29T05:10:02;8.00;;;2.35;;
70929;SDS011;58588;48.102;19.682;2023-07-29T05:13:06;6.57;;;2.20;;
70929;SDS011;58588;48.102;19.682;2023-07-29T05:16:08;8.68;;;2.50;;
70929;SDS011;58588;48.102;19.682;2023-07-29T05:19:10;5.72;;;2.17;;
70929;SDS011;58588;48.102;19.682;2023-07-29T05:22:13;9.45;;;2.78;;
70929;SDS011;58588;48.102;19.682;2023-07-29T05:25:15;5.88;;;2.15;;
70929;SDS011;58588;48.102;19.682;2023-07-29T05:28:19;5.60;;;2.60;;
70929;SDS011;58588;48.102;19.682;2023-07-29T05:31:21;5.90;;;2.25;;
70929;SDS011;58588;48.102;19.682;2023-07-29T05:34:23;5.43;;;2.03;;
70929;SDS011;58588;48.102;19.682;2023-07-29T05:37:25;5.72;;;2.15;;
70929;SDS011;58588;48.102;19.682;2023-07-29T05:40:27;6.10;;;2.10;;
70929;SDS011;58588;48.102;19.682;2023-07-29T05:43:31;8.00;;;2.37;;
70929;SDS011;58588;48.102;19.682;2023-07-29T05:46:33;6.70;;;2.20;;
70929;SDS011;58588;48.102;19.682;2023-07-29T05:49:35;7.80;;;2.40;;
70929;SDS011;58588;48.102;19.682;2023-07-29T05:52:37;5.80;;;2.20;;
70929;SDS011;58588;48.102;19.682;2023-07-29T05:55:39;6.72;;;2.25;;
70929;SDS011;58588;48.102;19.682;2023-07-29T05:58:43;7.00;;;2.03;;
70929;SDS011;58588;48.102;19.682;2023-07-29T06:01:45;6.60;;;2.15;;
70929;SDS011;58588;48.102;19.682;2023-07-29T06:04:47;6.47;;;2.20;;
70929;SDS011;58588;48.102;19.682;2023-07-29T06:07:49;7.07;;;2.40;;
70929;SDS011;58588;48.102;19.682;2023-07-29T06:10:51;6.18;;;2.05;;
70929;SDS011;58588;48.102;19.682;2023-07-29T06:13:54;7.67;;;2.33;;
70929;SDS011;58588;48.102;19.682;2023-07-29T06:16:56;5.40;;;2.30;;
70929;SDS011;58588;48.102;19.682;2023-07-29T06:19:58;5.72;;;2.13;;
70929;SDS011;58588;48.102;19.682;2023-07-29T06:23:00;6.13;;;1.95;;
70929;SDS011;58588;48.102;19.682;2023-07-29T06:26:03;6.45;;;2.33;;
70929;SDS011;58588;48.102;19.682;2023-07-29T06:29:08;7.50;;;2.20;;
70929;SDS011;58588;48.102;19.682;2023-07-29T06:32:10;7.50;;;2.20;;
70929;SDS011;58588;48.102;19.682;2023-07-29T06:35:12;7.45;;;2.40;;
70929;SDS011;58588;48.102;19.682;2023-07-29T06:38:14;6.40;;;2.38;;
70929;SDS011;58588;48.102;19.682;2023-07-29T06:41:19;7.00;;;2.70;;
70929;SDS011;58588;48.102;19.682;2023-07-29T06:44:23;6.37;;;2.30;;
70929;SDS011;58588;48.102;19.682;2023-07-29T06:47:25;6.90;;;2.47;;
70929;SDS011;58588;48.102;19.682;2023-07-29T06:50:27;6.63;;;2.60;;
70929;SDS011;58588;48.102;19.682;2023-07-29T06:53:29;6.78;;;2.33;;
70929;SDS011;58588;48.102;19.682;2023-07-29T06:56:31;6.07;;;2.05;;
70929;SDS011;58588;48.102;19.682;2023-07-29T06:59:34;5.90;;;2.20;;
70929;SDS011;58588;48.102;19.682;2023-07-29T07:02:36;5.93;;;2.10;;
70929;SDS011;58588;48.102;19.682;2023-07-29T07:05:38;8.23;;;2.20;;
70929;SDS011;58588;48.102;19.682;2023-07-29T07:08:40;6.13;;;2.10;;
70929;SDS011;58588;48.102;19.682;2023-07-29T07:11:44;7.07;;;2.65;;
70929;SDS011;58588;48.102;19.682;2023-07-29T07:14:47;6.63;;;2.10;;
70929;SDS011;58588;48.102;19.682;2023-07-29T07:17:50;6.28;;;2.28;;
70929;SDS011;58588;48.102;19.682;2023-07-29T07:20:52;6.75;;;2.13;;
70929;SDS011;58588;48.102;19.682;2023-07-29T07:24:04;7.32;;;2.20;;
70929;SDS011;58588;48.102;19.682;2023-07-29T07:27:06;6.88;;;2.30;;
70929;SDS011;58588;48.102;19.682;2023-07-29T07:30:10;8.80;;;2.40;;
70929;SDS011;58588;48.102;19.682;2023-07-29T07:33:12;6.57;;;2.40;;
70929;SDS011;58588;48.102;19.682;2023-07-29T07:36:14;6.80;;;2.50;;
70929;SDS011;58588;48.102;19.682;2023-07-29T07:39:17;8.88;;;2.70;;
70929;SDS011;58588;48.102;19.682;2023-07-29T07:42:19;6.97;;;2.50;;
70929;SDS011;58588;48.102;19.682;2023-07-29T07:45:22;8.37;;;2.43;;
70929;SDS011;58588;48.102;19.682;2023-07-29T07:48:24;5.47;;;2.50;;
70929;SDS011;58588;48.102;19.682;2023-07-29T07:51:26;6.50;;;2.50;;
70929;SDS011;58588;48.102;19.682;2023-07-29T07:54:28;5.93;;;2.53;;
70929;SDS011;58588;48.102;19.682;2023-07-29T07:57:30;5.93;;;2.25;;
70929;SDS011;58588;48.102;19.682;2023-07-29T08:00:34;6.20;;;2.50;;
70929;SDS011;58588;48.102;19.682;2023-07-29T08:03:36;6.30;;;2.80;;
70929;SDS011;58588;48.102;19.682;2023-07-29T08:06:38;7.10;;;2.55;;
70929;SDS011;58588;48.102;19.682;2023-07-29T08:09:40;6.95;;;2.40;;
70929;SDS011;58588;48.102;19.682;2023-07-29T08:12:42;5.40;;;2.40;;
70929;SDS011;58588;48.102;19.682;2023-07-29T08:15:47;7.33;;;2.47;;
70929;SDS011;58588;48.102;19.682;2023-07-29T08:18:49;6.35;;;2.05;;
70929;SDS011;58588;48.102;19.682;2023-07-29T08:21:51;5.93;;;2.10;;
70929;SDS011;58588;48.102;19.682;2023-07-29T08:24:53;6.18;;;2.40;;
70929;SDS011;58588;48.102;19.682;2023-07-29T08:27:55;8.52;;;2.63;;
70929;SDS011;58588;48.102;19.682;2023-07-29T08:30:58;5.53;;;2.10;;
70929;SDS011;58588;48.102;19.682;2023-07-29T08:34:01;6.82;;;2.30;;
70929;SDS011;58588;48.102;19.682;2023-07-29T08:37:03;5.72;;;2.20;;
70929;SDS011;58588;48.102;19.682;2023-07-29T08:40:05;4.90;;;1.75;;
70929;SDS011;58588;48.102;19.682;2023-07-29T08:43:08;5.57;;;2.17;;
70929;SDS011;58588;48.102;19.682;2023-07-29T08:46:14;5.87;;;2.10;;
70929;SDS011;58588;48.102;19.682;2023-07-29T08:49:18;5.60;;;2.15;;
70929;SDS011;58588;48.102;19.682;2023-07-29T08:52:20;5.15;;;1.95;;
70929;SDS011;58588;48.102;19.682;2023-07-29T08:55:23;5.35;;;1.90;;
70929;SDS011;58588;48.102;19.682;2023-07-29T08:58:25;4.97;;;1.95;;
70929;SDS011;58588;48.102;19.682;2023-07-29T09:01:29;5.63;;;1.90;;
70929;SDS011;58588;48.102;19.682;2023-07-29T09:04:31;7.40;;;2.00;;
70929;SDS011;58588;48.102;19.682;2023-07-29T09:07:33;5.15;;;1.80;;
70929;SDS011;58588;48.102;19.682;2023-07-29T09:10:38;5.15;;;1.77;;
70929;SDS011;58588;48.102;19.682;2023-07-29T09:13:40;5.15;;;2.10;;
70929;SDS011;58588;48.102;19.682;2023-07-29T09:16:44;7.87;;;2.30;;
70929;SDS011;58588;48.102;19.682;2023-07-29T09:19:47;7.47;;;1.92;;
70929;SDS011;58588;48.102;19.682;2023-07-29T09:22:49;5.15;;;1.95;;
70929;SDS011;58588;48.102;19.682;2023-07-29T09:25:52;4.70;;;1.70;;
70929;SDS011;58588;48.102;19.682;2023-07-29T09:29:02;6.13;;;2.00;;
70929;SDS011;58588;48.102;19.682;2023-07-29T09:35:27;5.45;;;2.10;;
70929;SDS011;58588;48.102;19.682;2023-07-29T09:38:31;5.93;;;2.00;;
70929;SDS011;58588;48.102;19.682;2023-07-29T09:41:33;5.53;;;1.70;;
70929;SDS011;58588;48.102;19.682;2023-07-29T09:44:35;5.25;;;1.70;;
70929;SDS011;58588;48.102;19.682;2023-07-29T09:47:39;5.33;;;1.80;;
70929;SDS011;58588;48.102;19.682;2023-07-29T09:50:41;4.85;;;1.48;;
70929;SDS011;58588;48.102;19.682;2023-07-29T09:53:43;7.18;;;1.83;;
70929;SDS011;58588;48.102;19.682;2023-07-29T09:56:46;8.70;;;2.20;;
70929;SDS011;58588;48.102;19.682;2023-07-29T09:59:55;6.00;;;1.25;;
70929;SDS011;58588;48.102;19.682;2023-07-29T10:02:58;4.20;;;1.37;;
70929;SDS011;58588;48.102;19.682;2023-07-29T10:06:01;4.32;;;1.20;;
70929;SDS011;58588;48.102;19.682;2023-07-29T10:09:04;5.00;;;1.40;;
70929;SDS011;58588;48.102;19.682;2023-07-29T10:12:07;4.45;;;1.27;;
70929;SDS011;58588;48.102;19.682;2023-07-29T10:15:11;4.22;;;1.20;;
70929;SDS011;58588;48.102;19.682;2023-07-29T10:18:15;4.00;;;1.10;;
70929;SDS011;58588;48.102;19.682;2023-07-29T10:21:17;4.07;;;1.20;;
70929;SDS011;58588;48.102;19.682;2023-07-29T10:24:21;4.70;;;1.30;;
70929;SDS011;58588;48.102;19.682;2023-07-29T10:27:28;5.32;;;1.10;;
70929;SDS011;58588;48.102;19.682;2023-07-29T10:30:31;4.43;;;1.00;;
70929;SDS011;58588;48.102;19.682;2023-07-29T10:33:35;5.17;;;1.27;;
70929;SDS011;58588;48.102;19.682;2023-07-29T10:36:38;5.75;;;1.30;;
70929;SDS011;58588;48.102;19.682;2023-07-29T10:39:51;3.90;;;1.17;;
70929;SDS011;58588;48.102;19.682;2023-07-29T10:43:00;4.60;;;1.13;;
70929;SDS011;58588;48.102;19.682;2023-07-29T10:46:16;4.00;;;0.93;;
70929;SDS011;58588;48.102;19.682;2023-07-29T10:49:24;4.17;;;1.00;;
70929;SDS011;58588;48.102;19.682;2023-07-29T10:52:40;3.95;;;1.10;;
70929;SDS011;58588;48.102;19.682;2023-07-29T10:55:43;3.03;;;0.90;;
70929;SDS011;58588;48.102;19.682;2023-07-29T10:58:45;3.85;;;0.98;;
70929;SDS011;58588;48.102;19.682;2023-07-29T11:01:50;3.40;;;0.95;;
70929;SDS011;58588;48.102;19.682;2023-07-29T11:04:55;4.13;;;1.20;;
70929;SDS011;58588;48.102;19.682;2023-07-29T11:07:57;3.80;;;1.00;;
70929;SDS011;58588;48.102;19.682;2023-07-29T11:11:17;3.55;;;0.98;;
70929;SDS011;58588;48.102;19.682;2023-07-29T11:14:19;5.10;;;1.23;;
70929;SDS011;58588;48.102;19.682;2023-07-29T11:17:21;3.38;;;0.90;;
70929;SDS011;58588;48.102;19.682;2023-07-29T11:20:25;3.70;;;1.00;;
70929;SDS011;58588;48.102;19.682;2023-07-29T11:23:29;4.00;;;1.02;;
70929;SDS011;58588;48.102;19.682;2023-07-29T11:26:32;3.42;;;0.90;;
70929;SDS011;58588;48.102;19.682;2023-07-29T11:29:38;4.60;;;1.30;;
70929;SDS011;58588;48.102;19.682;2023-07-29T11:32:41;3.72;;;1.10;;
70929;SDS011;58588;48.102;19.682;2023-07-29T11:35:45;3.83;;;1.07;;
70929;SDS011;58588;48.102;19.682;2023-07-29T11:38:47;4.32;;;1.10;;
70929;SDS011;58588;48.102;19.682;2023-07-29T11:41:49;3.30;;;0.90;;
70929;SDS011;58588;48.102;19.682;2023-07-29T11:44:51;4.30;;;1.15;;
70929;SDS011;58588;48.102;19.682;2023-07-29T11:47:53;5.72;;;1.10;;
70929;SDS011;58588;48.102;19.682;2023-07-29T11:50:57;4.10;;;1.10;;
70929;SDS011;58588;48.102;19.682;2023-07-29T11:53:59;4.70;;;1.20;;
70929;SDS011;58588;48.102;19.682;2023-07-29T11:57:01;3.35;;;0.80;;
70929;SDS011;58588;48.102;19.682;2023-07-29T12:00:05;4.07;;;1.10;;
70929;SDS011;58588;48.102;19.682;2023-07-29T12:03:10;4.43;;;1.20;;
70929;SDS011;58588;48.102;19.682;2023-07-29T12:06:13;4.40;;;1.20;;
70929;SDS011;58588;48.102;19.682;2023-07-29T12:09:16;5.93;;;1.27;;
70929;SDS011;58588;48.102;19.682;2023-07-29T12:12:18;6.50;;;1.20;;
70929;SDS011;58588;48.102;19.682;2023-07-29T12:15:23;4.95;;;1.10;;
70929;SDS011;58588;48.102;19.682;2023-07-29T12:18:29;5.50;;;1.10;;
70929;SDS011;58588;48.102;19.682;2023-07-29T12:21:33;3.87;;;1.17;;
70929;SDS011;58588;48.102;19.682;2023-07-29T12:24:37;4.13;;;1.20;;
70929;SDS011;58588;48.102;19.682;2023-07-29T12:27:42;5.03;;;1.30;;
70929;SDS011;58588;48.102;19.682;2023-07-29T12:30:45;4.75;;;1.10;;
70929;SDS011;58588;48.102;19.682;2023-07-29T12:33:47;4.78;;;1.30;;
70929;SDS011;58588;48.102;19.682;2023-07-29T12:36:50;7.20;;;1.23;;
70929;SDS011;58588;48.102;19.682;2023-07-29T12:39:54;6.10;;;1.17;;
70929;SDS011;58588;48.102;19.682;2023-07-29T12:42:56;5.03;;;1.30;;
70929;SDS011;58588;48.102;19.682;2023-07-29T12:45:58;4.95;;;1.42;;
70929;SDS011;58588;48.102;19.682;2023-07-29T12:49:01;4.78;;;1.30;;
70929;SDS011;58588;48.102;19.682;2023-07-29T12:52:05;6.63;;;1.40;;
70929;SDS011;58588;48.102;19.682;2023-07-29T12:55:07;7.03;;;1.40;;
70929;SDS011;58588;48.102;19.682;2023-07-29T12:58:13;4.68;;;1.38;;
70929;SDS011;58588;48.102;19.682;2023-07-29T13:01:15;4.10;;;1.30;;
70929;SDS011;58588;48.102;19.682;2023-07-29T13:04:18;4.90;;;1.35;;
70929;SDS011;58588;48.102;19.682;2023-07-29T13:07:21;5.33;;;1.20;;
70929;SDS011;58588;48.102;19.682;2023-07-29T13:10:23;4.07;;;1.30;;
70929;SDS011;58588;48.102;19.682;2023-07-29T13:13:26;4.20;;;1.20;;
70929;SDS011;58588;48.102;19.682;2023-07-29T13:16:28;4.30;;;1.40;;
70929;SDS011;58588;48.102;19.682;2023-07-29T13:19:30;4.05;;;1.27;;
70929;SDS011;58588;48.102;19.682;2023-07-29T13:22:33;4.07;;;1.30;;
70929;SDS011;58588;48.102;19.682;2023-07-29T13:25:35;4.28;;;1.38;;
70929;SDS011;58588;48.102;19.682;2023-07-29T13:28:37;5.03;;;1.40;;
70929;SDS011;58588;48.102;19.682;2023-07-29T13:31:39;4.50;;;1.40;;
70929;SDS011;58588;48.102;19.682;2023-07-29T13:34:41;4.43;;;1.30;;
70929;SDS011;58588;48.102;19.682;2023-07-29T13:37:45;4.87;;;1.30;;
70929;SDS011;58588;48.102;19.682;2023-07-29T13:40:47;5.75;;;1.40;;
70929;SDS011;58588;48.102;19.682;2023-07-29T13:43:51;4.20;;;1.30;;
70929;SDS011;58588;48.102;19.682;2023-07-29T13:46:53;5.75;;;1.30;;
70929;SDS011;58588;48.102;19.682;2023-07-29T13:49:55;6.57;;;1.30;;
70929;SDS011;58588;48.102;19.682;2023-07-29T13:52:58;6.07;;;1.40;;
70929;SDS011;58588;48.102;19.682;2023-07-29T13:56:00;4.18;;;1.20;;
70929;SDS011;58588;48.102;19.682;2023-07-29T13:59:02;8.38;;;1.25;;
70929;SDS011;58588;48.102;19.682;2023-07-29T14:02:05;4.68;;;1.20;;
70929;SDS011;58588;48.102;19.682;2023-07-29T14:05:07;4.78;;;1.40;;
70929;SDS011;58588;48.102;19.682;2023-07-29T14:08:11;4.20;;;1.37;;
70929;SDS011;58588;48.102;19.682;2023-07-29T14:11:13;4.47;;;1.40;;
70929;SDS011;58588;48.102;19.682;2023-07-29T14:14:15;5.93;;;1.30;;
70929;SDS011;58588;48.102;19.682;2023-07-29T14:17:17;4.43;;;1.45;;
70929;SDS011;58588;48.102;19.682;2023-07-29T14:20:19;4.82;;;1.40;;
70929;SDS011;58588;48.102;19.682;2023-07-29T14:23:23;5.17;;;1.40;;
70929;SDS011;58588;48.102;19.682;2023-07-29T14:26:25;4.40;;;1.23;;
70929;SDS011;58588;48.102;19.682;2023-07-29T14:29:27;4.28;;;1.17;;
70929;SDS011;58588;48.102;19.682;2023-07-29T14:32:29;3.92;;;1.20;;
70929;SDS011;58588;48.102;19.682;2023-07-29T14:35:31;4.28;;;1.40;;
70929;SDS011;58588;48.102;19.682;2023-07-29T14:38:34;4.77;;;1.67;;
70929;SDS011;58588;48.102;19.682;2023-07-29T14:41:37;4.82;;;1.48;;
70929;SDS011;58588;48.102;19.682;2023-07-29T14:44:39;4.75;;;1.52;;
70929;SDS011;58588;48.102;19.682;2023-07-29T14:47:41;4.10;;;1.20;;
70929;SDS011;58588;48.102;19.682;2023-07-29T14:50:43;4.10;;;1.30;;
70929;SDS011;58588;48.102;19.682;2023-07-29T14:53:46;4.23;;;1.30;;
70929;SDS011;58588;48.102;19.682;2023-07-29T14:56:48;4.78;;;1.50;;
70929;SDS011;58588;48.102;19.682;2023-07-29T14:59:50;4.50;;;1.35;;
70929;SDS011;58588;48.102;19.682;2023-07-29T15:02:53;4.20;;;1.40;;
70929;SDS011;58588;48.102;19.682;2023-07-29T15:05:55;4.78;;;1.67;;
70929;SDS011;58588;48.102;19.682;2023-07-29T15:09:00;6.00;;;1.47;;
70929;SDS011;58588;48.102;19.682;2023-07-29T15:12:03;5.00;;;1.42;;
70929;SDS011;58588;48.102;19.682;2023-07-29T15:15:06;4.60;;;1.40;;
70929;SDS011;58588;48.102;19.682;2023-07-29T15:18:09;4.75;;;1.67;;
70929;SDS011;58588;48.102;19.682;2023-07-29T15:21:11;4.10;;;1.30;;
70929;SDS011;58588;48.102;19.682;2023-07-29T15:24:15;4.53;;;1.50;;
70929;SDS011;58588;48.102;19.682;2023-07-29T15:27:17;6.57;;;1.58;;
70929;SDS011;58588;48.102;19.682;2023-07-29T15:30:19;5.45;;;1.42;;
70929;SDS011;58588;48.102;19.682;2023-07-29T15:33:21;5.13;;;1.50;;
70929;SDS011;58588;48.102;19.682;2023-07-29T15:36:23;5.30;;;1.33;;
70929;SDS011;58588;48.102;19.682;2023-07-29T15:39:27;4.70;;;1.33;;
70929;SDS011;58588;48.102;19.682;2023-07-29T15:42:29;4.90;;;1.40;;
70929;SDS011;58588;48.102;19.682;2023-07-29T15:45:31;4.70;;;1.52;;
70929;SDS011;58588;48.102;19.682;2023-07-29T15:48:33;4.65;;;1.48;;
70929;SDS011;58588;48.102;19.682;2023-07-29T15:51:35;5.28;;;1.50;;
70929;SDS011;58588;48.102;19.682;2023-07-29T15:54:39;5.17;;;1.50;;
70929;SDS011;58588;48.102;19.682;2023-07-29T15:57:41;5.40;;;1.63;;
70929;SDS011;58588;48.102;19.682;2023-07-29T16:00:43;4.57;;;1.55;;
70929;SDS011;58588;48.102;19.682;2023-07-29T16:03:45;5.47;;;1.38;;
70929;SDS011;58588;48.102;19.682;2023-07-29T16:06:47;5.15;;;1.50;;
70929;SDS011;58588;48.102;19.682;2023-07-29T16:09:51;4.93;;;1.40;;
70929;SDS011;58588;48.102;19.682;2023-07-29T16:12:53;4.80;;;1.50;;
70929;SDS011;58588;48.102;19.682;2023-07-29T16:15:55;5.45;;;1.50;;
70929;SDS011;58588;48.102;19.682;2023-07-29T16:18:58;4.60;;;1.52;;
70929;SDS011;58588;48.102;19.682;2023-07-29T16:22:00;4.47;;;1.38;;
70929;SDS011;58588;48.102;19.682;2023-07-29T16:25:04;4.80;;;1.47;;
70929;SDS011;58588;48.102;19.682;2023-07-29T16:28:06;5.50;;;1.40;;
70929;SDS011;58588;48.102;19.682;2023-07-29T16:31:08;5.35;;;1.20;;
70929;SDS011;58588;48.102;19.682;2023-07-29T16:34:10;5.20;;;1.20;;
70929;SDS011;58588;48.102;19.682;2023-07-29T16:37:12;4.25;;;1.25;;
70929;SDS011;58588;48.102;19.682;2023-07-29T16:40:16;4.33;;;1.23;;
70929;SDS011;58588;48.102;19.682;2023-07-29T16:43:18;4.75;;;1.45;;
70929;SDS011;58588;48.102;19.682;2023-07-29T16:46:20;5.90;;;1.50;;
70929;SDS011;58588;48.102;19.682;2023-07-29T16:49:22;4.28;;;1.27;;
70929;SDS011;58588;48.102;19.682;2023-07-29T16:52:24;5.75;;;1.10;;
70929;SDS011;58588;48.102;19.682;2023-07-29T16:55:28;4.13;;;1.10;;
70929;SDS011;58588;48.102;19.682;2023-07-29T16:58:30;4.20;;;1.10;;
70929;SDS011;58588;48.102;19.682;2023-07-29T17:01:32;4.15;;;1.10;;
70929;SDS011;58588;48.102;19.682;2023-07-29T17:04:34;3.90;;;1.20;;
70929;SDS011;58588;48.102;19.682;2023-07-29T17:07:37;4.00;;;1.10;;
70929;SDS011;58588;48.102;19.682;2023-07-29T17:10:40;4.53;;;1.10;;
70929;SDS011;58588;48.102;19.682;2023-07-29T17:13:42;4.65;;;1.30;;
70929;SDS011;58588;48.102;19.682;2023-07-29T17:16:44;4.45;;;1.10;;
70929;SDS011;58588;48.102;19.682;2023-07-29T17:19:46;4.50;;;1.25;;
70929;SDS011;58588;48.102;19.682;2023-07-29T17:22:48;4.20;;;1.13;;
70929;SDS011;58588;48.102;19.682;2023-07-29T17:25:52;5.03;;;1.30;;
70929;SDS011;58588;48.102;19.682;2023-07-29T17:28:54;6.43;;;1.20;;
70929;SDS011;58588;48.102;19.682;2023-07-29T17:31:56;4.80;;;1.10;;
70929;SDS011;58588;48.102;19.682;2023-07-29T17:34:58;4.65;;;1.25;;
70929;SDS011;58588;48.102;19.682;2023-07-29T17:38:00;4.50;;;1.15;;
70929;SDS011;58588;48.102;19.682;2023-07-29T17:41:04;5.97;;;1.60;;
70929;SDS011;58588;48.102;19.682;2023-07-29T17:44:06;4.53;;;1.63;;
70929;SDS011;58588;48.102;19.682;2023-07-29T17:47:08;5.13;;;1.45;;
70929;SDS011;58588;48.102;19.682;2023-07-29T17:50:10;5.05;;;1.73;;
70929;SDS011;58588;48.102;19.682;2023-07-29T17:53:12;4.47;;;1.40;;
70929;SDS011;58588;48.102;19.682;2023-07-29T17:56:16;4.07;;;1.30;;
70929;SDS011;58588;48.102;19.682;2023-07-29T17:59:18;4.97;;;1.40;;
70929;SDS011;58588;48.102;19.682;2023-07-29T18:02:20;4.57;;;1.50;;
70929;SDS011;58588;48.102;19.682;2023-07-29T18:05:22;4.93;;;1.40;;
70929;SDS011;58588;48.102;19.682;2023-07-29T18:08:24;6.63;;;1.45;;